Universal, Pennsylvania
Current Conditions -  °F | °C
As of 1:53 AM on Friday 19 Dec 2014 (Local Time) from KAGC Reporting Station
Overcast Overcast  
Wind Chill: 18°   Ceiling: 1300
Heat Index: 27°   Visibility: 7mi
Dew Point: 20°   Wind: 9mph
Humidity: 75%   Direction: 270°W
Pressure: 30.13"   Gusts: NA
Location:  40.4601°N, 79.8243°W
Report Text: KAGC 190653Z 27008KT 7SM OVC013 M03/M07 A3013 RMK AO2 SLP222 T10281067
Loading
Personal Weather Stations






























Interactive Weather Map New forecast layout! Learn more

10-Day Weather Forecast

Advertisements
Track Severe Weather on mobile